Time;durP1;ratioP1;P1;durP2;ratioP2;P2;SDS_P1;SDS_P2;PMS_P1;PMS_P2;Temp;Humidity;BMP_temperature;BMP_pressure;BME280_temperature;BME280_humidity;BME280_pressure;Samples;Min_cycle;Max_cycle;Signal;HPM_P1;HPM_P2
2022/01/10 00:00:10;;;;;;;18.60;4.15;;;4.10;99.90;;;;;;5020505;28;20037;-72
2022/01/10 00:02:36;;;;;;;25.38;5.13;;;4.10;99.90;;;;;;5020649;28;20033;-72
2022/01/10 00:05:02;;;;;;;26.48;5.20;;;4.00;99.90;;;;;;5036875;28;20039;-72
2022/01/10 00:07:28;;;;;;;23.33;5.20;;;4.10;99.90;;;;;;5037017;28;20048;-73
2022/01/10 00:09:53;;;;;;;25.63;5.20;;;4.10;99.90;;;;;;5037066;28;20036;-72
2022/01/10 00:12:19;;;;;;;27.25;4.85;;;4.00;99.90;;;;;;5036737;28;20135;-72
2022/01/10 00:14:44;;;;;;;20.90;5.13;;;4.00;99.90;;;;;;5036789;28;20120;-72
2022/01/10 00:17:10;;;;;;;20.02;5.20;;;4.00;99.90;;;;;;5036444;28;20094;-72
2022/01/10 00:19:35;;;;;;;20.75;4.72;;;4.00;99.90;;;;;;5036566;28;20051;-72
2022/01/10 00:22:01;;;;;;;21.85;4.38;;;3.90;99.90;;;;;;5036599;28;20036;-72
2022/01/10 00:24:27;;;;;;;24.95;5.05;;;3.90;99.90;;;;;;5036527;28;20041;-72
2022/01/10 00:26:52;;;;;;;19.98;4.90;;;3.90;99.90;;;;;;5036581;28;20051;-72
2022/01/10 00:29:18;;;;;;;16.75;4.15;;;3.90;99.90;;;;;;5036451;28;20510;-72
2022/01/10 00:31:44;;;;;;;19.83;4.75;;;3.80;99.90;;;;;;5036413;28;20045;-72
2022/01/10 00:34:10;;;;;;;19.63;4.57;;;3.80;99.90;;;;;;5020184;28;20044;-72
2022/01/10 00:36:36;;;;;;;19.77;4.15;;;3.80;99.90;;;;;;5036218;28;20051;-72
2022/01/10 00:39:03;;;;;;;23.90;5.00;;;3.80;99.90;;;;;;5036246;28;20116;-72
2022/01/10 00:41:28;;;;;;;24.25;5.40;;;3.80;99.90;;;;;;5036469;28;20106;-72
2022/01/10 00:43:54;;;;;;;20.20;4.35;;;3.80;99.90;;;;;;5036192;28;20489;-72
2022/01/10 00:46:20;;;;;;;25.77;6.03;;;3.70;99.90;;;;;;5036375;28;20112;-72
2022/01/10 00:48:46;;;;;;;20.58;5.28;;;3.70;99.90;;;;;;5036275;28;20497;-71
2022/01/10 00:51:11;;;;;;;17.48;4.90;;;3.70;99.90;;;;;;5019566;28;20415;-72
2022/01/10 00:53:37;;;;;;;15.40;4.25;;;3.60;99.90;;;;;;5035908;28;20067;-72
2022/01/10 00:56:03;;;;;;;15.85;3.92;;;3.60;99.90;;;;;;5035465;28;20071;-72
2022/01/10 00:58:29;;;;;;;18.80;4.30;;;3.60;99.90;;;;;;5035795;28;20382;-72
2022/01/10 01:00:54;;;;;;;12.57;3.60;;;3.50;99.90;;;;;;5019375;28;20518;-72
2022/01/10 01:03:20;;;;;;;14.35;3.45;;;3.50;99.90;;;;;;5035870;28;20033;-72
2022/01/10 01:05:46;;;;;;;15.55;4.15;;;3.40;99.90;;;;;;5035970;28;20095;-72
2022/01/10 01:08:12;;;;;;;18.27;4.78;;;3.30;99.90;;;;;;5019223;28;20445;-72
2022/01/10 01:13:24;;;;;;;14.48;4.05;;;3.30;99.90;;;;;;5035841;28;20048;-72
2022/01/10 01:24:03;;;;;;;16.55;4.53;;;3.20;99.90;;;;;;5035148;28;20040;-72
2022/01/10 01:26:36;;;;;;;20.42;4.88;;;3.10;99.90;;;;;;5019119;28;20121;-72
2022/01/10 01:29:03;;;;;;;17.30;4.57;;;3.10;99.90;;;;;;5035704;28;20044;-72
2022/01/10 01:31:29;;;;;;;15.80;5.28;;;3.10;99.90;;;;;;5018909;28;20037;-72
2022/01/10 01:33:54;;;;;;;15.50;5.32;;;3.10;99.90;;;;;;5035339;28;20067;-72
2022/01/10 01:36:25;;;;;;;16.80;4.55;;;3.00;99.90;;;;;;5018947;28;20041;-72
2022/01/10 01:38:52;;;;;;;20.77;5.72;;;3.00;99.90;;;;;;5018791;28;20424;-72
2022/01/10 01:41:34;;;;;;;16.35;5.10;;;3.00;99.90;;;;;;5035166;28;20427;-72
2022/01/10 01:44:00;;;;;;;17.35;5.60;;;3.00;99.90;;;;;;5019033;28;20039;-72
2022/01/10 01:46:26;;;;;;;15.77;4.80;;;3.00;99.90;;;;;;5018931;28;20427;-72
2022/01/10 01:48:53;;;;;;;17.55;5.38;;;3.00;99.90;;;;;;5018877;28;20512;-72
2022/01/10 01:51:19;;;;;;;16.48;5.60;;;3.00;99.90;;;;;;5035165;28;20045;-72
2022/01/10 01:53:46;;;;;;;17.83;5.25;;;2.90;99.90;;;;;;5035161;28;20115;-71
2022/01/10 01:56:13;;;;;;;15.70;4.57;;;2.90;99.90;;;;;;5035140;28;20045;-72
2022/01/10 01:58:39;;;;;;;13.15;4.97;;;2.80;99.90;;;;;;5034980;28;20041;-71
2022/01/10 02:01:06;;;;;;;14.60;5.15;;;2.70;99.90;;;;;;5035332;28;20035;-71
2022/01/10 02:03:33;;;;;;;14.45;4.97;;;2.70;99.90;;;;;;5034989;28;20037;-72
2022/01/10 02:06:00;;;;;;;14.27;4.90;;;2.70;99.90;;;;;;5034981;28;20070;-72
2022/01/10 02:08:26;;;;;;;25.20;5.80;;;2.70;99.90;;;;;;5036947;28;20041;-72
2022/01/10 02:10:51;;;;;;;20.02;5.47;;;2.70;99.90;;;;;;5039277;28;20128;-72
2022/01/10 02:13:17;;;;;;;21.00;6.05;;;2.60;99.90;;;;;;5039039;28;20493;-72
2022/01/10 02:15:48;;;;;;;22.00;5.38;;;2.60;99.90;;;;;;5039285;28;20048;-72
2022/01/10 02:18:20;;;;;;;17.80;6.03;;;2.60;99.90;;;;;;5022282;28;20072;-72
2022/01/10 02:20:47;;;;;;;13.60;6.07;;;2.60;99.90;;;;;;5038924;28;20037;-72
2022/01/10 02:23:14;;;;;;;19.92;6.25;;;2.60;99.90;;;;;;5039104;28;20037;-72
2022/01/10 02:25:40;;;;;;;16.13;6.50;;;2.50;99.90;;;;;;5038751;28;20072;-72
2022/01/10 02:28:05;;;;;;;16.60;5.78;;;2.50;99.90;;;;;;5022257;28;20044;-72
2022/01/10 02:30:31;;;;;;;21.45;7.00;;;2.50;99.90;;;;;;5038676;28;20421;-72
2022/01/10 02:33:00;;;;;;;25.45;7.45;;;2.50;99.90;;;;;;5023483;28;20037;-72
2022/01/10 02:35:30;;;;;;;23.23;7.35;;;2.50;99.90;;;;;;5022386;28;20049;-72
2022/01/10 02:37:56;;;;;;;19.15;6.75;;;2.50;99.90;;;;;;5038546;28;20045;-72
2022/01/10 02:40:25;;;;;;;19.75;6.50;;;2.50;99.90;;;;;;5038528;28;20040;-72
2022/01/10 02:42:51;;;;;;;28.60;8.02;;;2.50;99.90;;;;;;5038424;28;20041;-72
2022/01/10 02:45:18;;;;;;;18.00;6.97;;;2.50;99.90;;;;;;5022192;28;20037;-72
2022/01/10 02:47:43;;;;;;;24.15;8.98;;;2.50;99.90;;;;;;5038243;28;20041;-71
2022/01/10 02:50:11;;;;;;;25.38;8.75;;;2.50;99.90;;;;;;5038322;28;20128;-72
2022/01/10 02:52:37;;;;;;;26.23;7.68;;;2.50;99.90;;;;;;5021748;28;20055;-72
2022/01/10 02:55:04;;;;;;;17.08;6.53;;;2.40;99.90;;;;;;5038474;28;20044;-72
2022/01/10 02:57:32;;;;;;;21.40;7.20;;;2.40;99.90;;;;;;5021570;28;20090;-71
2022/01/10 02:59:59;;;;;;;20.33;7.57;;;2.40;99.90;;;;;;5021635;28;20029;-72
2022/01/10 03:02:29;;;;;;;26.23;8.60;;;2.30;99.90;;;;;;5038108;28;20090;-72
2022/01/10 03:04:55;;;;;;;22.52;7.55;;;2.30;99.90;;;;;;5038106;28;20044;-72
2022/01/10 03:07:24;;;;;;;23.40;9.13;;;2.30;99.90;;;;;;5037947;28;20451;-72
2022/01/10 03:09:51;;;;;;;21.35;8.10;;;2.30;99.90;;;;;;5037928;28;20037;-72
2022/01/10 03:12:17;;;;;;;21.23;8.82;;;2.30;99.90;;;;;;5037903;28;20083;-72
2022/01/10 03:14:44;;;;;;;21.60;8.57;;;2.20;99.90;;;;;;5038189;28;20053;-72
2022/01/10 03:17:10;;;;;;;20.05;7.90;;;2.30;99.90;;;;;;5037719;28;20528;-72
2022/01/10 03:19:37;;;;;;;25.23;8.85;;;2.20;99.90;;;;;;5020793;28;20045;-72
2022/01/10 03:22:03;;;;;;;14.60;7.55;;;2.30;99.90;;;;;;5037809;28;20041;-71
2022/01/10 03:24:29;;;;;;;14.38;6.93;;;2.30;99.90;;;;;;5037728;28;20072;-72
2022/01/10 03:26:55;;;;;;;20.73;8.38;;;2.20;99.90;;;;;;5037439;28;20077;-72
2022/01/10 03:29:21;;;;;;;19.95;7.88;;;2.20;99.90;;;;;;5037591;28;20080;-72
2022/01/10 03:31:46;;;;;;;20.60;9.15;;;2.10;99.90;;;;;;5037834;28;20045;-72
2022/01/10 03:34:13;;;;;;;19.45;8.32;;;2.20;99.90;;;;;;5037502;28;20029;-71
2022/01/10 03:36:43;;;;;;;21.90;8.60;;;2.20;99.90;;;;;;5037419;28;20087;-72
2022/01/10 03:39:09;;;;;;;22.17;8.27;;;2.20;99.90;;;;;;5037313;28;20037;-72
2022/01/10 03:41:38;;;;;;;21.15;9.00;;;2.20;99.90;;;;;;5020862;28;20070;-72
2022/01/10 03:44:05;;;;;;;22.60;8.38;;;2.20;99.90;;;;;;5037338;28;20040;-72
2022/01/10 03:46:32;;;;;;;21.73;8.80;;;2.20;99.90;;;;;;5037241;28;20091;-72
2022/01/10 03:49:01;;;;;;;29.15;10.13;;;2.20;99.90;;;;;;5037424;28;20057;-72
2022/01/10 03:51:27;;;;;;;29.10;9.93;;;2.10;99.90;;;;;;5037131;28;20041;-72
2022/01/10 03:53:54;;;;;;;22.15;9.57;;;2.10;99.90;;;;;;5037117;28;20045;-72
2022/01/10 03:56:21;;;;;;;28.35;9.80;;;2.10;99.90;;;;;;5037285;28;20041;-72
2022/01/10 03:58:47;;;;;;;28.08;9.38;;;2.00;99.90;;;;;;5036921;28;20040;-71
2022/01/10 04:01:13;;;;;;;23.90;9.65;;;2.00;99.90;;;;;;5037301;28;20399;-71
2022/01/10 04:03:40;;;;;;;30.60;11.20;;;2.00;99.90;;;;;;5020396;28;20540;-72
2022/01/10 04:06:06;;;;;;;25.00;9.68;;;2.00;99.90;;;;;;5037105;28;20087;-72
2022/01/10 04:08:32;;;;;;;25.27;10.18;;;2.00;99.90;;;;;;5020388;28;20040;-72
2022/01/10 04:10:59;;;;;;;25.63;10.40;;;1.90;99.90;;;;;;5036860;28;20509;-72
2022/01/10 04:13:25;;;;;;;30.63;11.25;;;1.90;99.90;;;;;;5036716;28;20086;-72
2022/01/10 04:15:51;;;;;;;25.05;10.60;;;1.90;99.90;;;;;;5020276;28;20045;-72
2022/01/10 04:18:17;;;;;;;23.00;10.82;;;1.80;99.90;;;;;;5036466;28;20037;-71
2022/01/10 04:20:44;;;;;;;30.40;11.85;;;1.80;99.90;;;;;;5036879;28;20041;-72
2022/01/10 04:23:12;;;;;;;28.70;11.63;;;1.80;99.90;;;;;;5036573;28;20045;-71
2022/01/10 04:25:37;;;;;;;23.52;11.13;;;1.80;99.90;;;;;;5036470;28;20044;-72
2022/01/10 04:28:03;;;;;;;33.55;11.90;;;1.80;99.90;;;;;;5019768;28;20418;-72
2022/01/10 04:30:29;;;;;;;21.20;11.18;;;1.80;99.90;;;;;;5035583;28;20045;-72
2022/01/10 04:32:57;;;;;;;31.60;12.20;;;1.80;99.90;;;;;;5020120;28;20036;-71
2022/01/10 04:35:23;;;;;;;28.15;12.23;;;1.80;99.90;;;;;;5036564;28;20409;-71
2022/01/10 04:37:49;;;;;;;29.58;12.40;;;1.70;99.90;;;;;;5036146;28;20037;-71
2022/01/10 04:40:15;;;;;;;32.80;12.27;;;1.70;99.90;;;;;;5036287;28;20033;-71
2022/01/10 04:42:40;;;;;;;27.17;11.32;;;1.70;99.90;;;;;;5036257;28;20037;-72
2022/01/10 04:45:06;;;;;;;24.45;11.85;;;1.70;99.90;;;;;;5019715;28;20053;-72
2022/01/10 04:47:32;;;;;;;26.63;11.32;;;1.80;99.90;;;;;;5036219;28;20131;-72
2022/01/10 04:52:23;;;;;;;25.20;11.77;;;1.80;99.90;;;;;;5036076;28;20098;-72
2022/01/10 04:54:49;;;;;;;32.42;14.00;;;1.80;99.90;;;;;;5019448;28;20072;-72
2022/01/10 04:57:14;;;;;;;24.38;12.88;;;1.80;99.90;;;;;;5036047;28;20043;-72
2022/01/10 04:59:40;;;;;;;19.85;10.90;;;1.80;99.90;;;;;;5035909;28;20045;-72
2022/01/10 05:02:05;;;;;;;28.10;11.60;;;1.80;99.90;;;;;;5035896;28;20049;-72
2022/01/10 05:04:31;;;;;;;21.58;11.50;;;1.80;99.90;;;;;;5035868;28;20037;-72
2022/01/10 05:06:57;;;;;;;26.30;12.77;;;1.80;99.90;;;;;;5035736;28;20124;-71
2022/01/10 05:09:22;;;;;;;22.42;11.18;;;1.70;99.90;;;;;;5035730;28;20058;-71
2022/01/10 05:11:48;;;;;;;21.17;11.55;;;1.80;99.90;;;;;;5019241;28;20060;-72
2022/01/10 05:14:14;;;;;;;25.25;12.98;;;1.70;99.90;;;;;;5035603;28;20033;-72
2022/01/10 05:16:40;;;;;;;24.80;12.55;;;1.70;99.90;;;;;;5035464;28;20043;-71
2022/01/10 05:19:07;;;;;;;31.98;14.15;;;1.70;99.90;;;;;;5035544;28;20524;-71
2022/01/10 05:21:33;;;;;;;36.47;12.98;;;1.70;99.90;;;;;;5035541;28;20040;-72
2022/01/10 05:23:58;;;;;;;34.08;12.82;;;1.60;99.90;;;;;;5019205;28;20048;-71
2022/01/10 05:26:24;;;;;;;26.98;12.00;;;1.70;99.90;;;;;;5035408;28;20036;-71
2022/01/10 05:28:52;;;;;;;24.77;12.40;;;1.60;99.90;;;;;;5075047;22;20043;-71
2022/01/10 05:31:18;;;;;;;27.90;11.75;;;1.60;99.90;;;;;;5039063;28;20123;-71
2022/01/10 05:33:44;;;;;;;30.58;13.45;;;1.60;99.90;;;;;;5055300;28;20119;-71
2022/01/10 05:36:10;;;;;;;29.83;12.05;;;1.60;99.90;;;;;;5038558;28;20040;-71
2022/01/10 05:38:36;;;;;;;32.72;13.70;;;1.60;99.90;;;;;;5055064;28;20047;-71
2022/01/10 05:41:01;;;;;;;23.63;12.73;;;1.60;99.90;;;;;;5055452;28;20036;-71
2022/01/10 05:43:27;;;;;;;26.67;13.60;;;1.60;99.90;;;;;;5055106;28;20412;-70
2022/01/10 05:45:53;;;;;;;31.63;12.90;;;1.60;99.90;;;;;;5055123;28;20066;-70
2022/01/10 05:48:25;;;;;;;28.80;12.43;;;1.60;99.90;;;;;;5054964;28;20044;-71
2022/01/10 05:50:52;;;;;;;24.93;12.90;;;1.60;99.90;;;;;;5055451;28;20040;-72
2022/01/10 05:53:18;;;;;;;23.08;12.00;;;1.50;99.90;;;;;;5055070;28;20082;-71
2022/01/10 05:55:44;;;;;;;28.75;13.15;;;1.50;99.90;;;;;;5039184;28;20388;-71
2022/01/10 05:58:10;;;;;;;22.08;11.10;;;1.50;99.90;;;;;;5054877;28;20041;-71
2022/01/10 06:00:36;;;;;;;26.77;14.10;;;1.50;99.90;;;;;;5054971;28;20033;-71
2022/01/10 06:03:03;;;;;;;29.67;13.07;;;1.50;99.90;;;;;;5055018;28;20484;-71
2022/01/10 06:05:31;;;;;;;28.90;11.80;;;1.50;99.90;;;;;;5054987;28;20075;-71
2022/01/10 06:08:02;;;;;;;24.15;13.02;;;1.40;99.90;;;;;;5038342;28;20047;-71
2022/01/10 06:10:29;;;;;;;29.05;12.93;;;1.40;99.90;;;;;;5054993;28;20037;-71
2022/01/10 06:12:55;;;;;;;26.48;11.70;;;1.40;99.90;;;;;;5054923;28;20037;-70
2022/01/10 06:15:21;;;;;;;28.38;13.40;;;1.40;99.90;;;;;;5054853;28;20041;-71
2022/01/10 06:17:47;;;;;;;26.85;13.20;;;1.40;99.90;;;;;;5054717;28;20037;-71
2022/01/10 06:20:13;;;;;;;27.40;13.75;;;1.40;99.90;;;;;;5054888;28;20111;-71
2022/01/10 06:22:39;;;;;;;29.90;14.40;;;1.40;99.90;;;;;;5055053;28;20123;-71
2022/01/10 06:25:07;;;;;;;31.20;13.30;;;1.30;99.90;;;;;;5055063;28;20527;-71
2022/01/10 06:27:32;;;;;;;36.45;15.15;;;1.30;99.90;;;;;;5054828;28;20087;-71
2022/01/10 06:29:58;;;;;;;24.83;12.90;;;1.30;99.90;;;;;;5038273;28;20549;-71
2022/01/10 06:32:24;;;;;;;28.85;13.20;;;1.30;99.90;;;;;;5054718;28;20040;-71
2022/01/10 06:34:49;;;;;;;28.20;13.02;;;1.30;99.90;;;;;;5038063;28;20068;-71
2022/01/10 06:37:15;;;;;;;30.08;13.25;;;1.30;99.90;;;;;;5054496;28;20045;-71
2022/01/10 06:39:40;;;;;;;21.50;12.90;;;1.30;99.90;;;;;;5038076;28;20040;-71
2022/01/10 06:42:06;;;;;;;27.40;12.77;;;1.30;99.90;;;;;;5038371;28;20076;-71
2022/01/10 06:44:32;;;;;;;24.90;12.75;;;1.20;99.90;;;;;;5054644;28;20082;-71
2022/01/10 06:46:58;;;;;;;26.98;14.25;;;1.20;99.90;;;;;;5054729;28;20037;-71
2022/01/10 06:49:23;;;;;;;37.08;13.90;;;1.30;99.90;;;;;;5054817;28;20400;-71
2022/01/10 06:51:49;;;;;;;25.63;13.23;;;1.30;99.90;;;;;;5038005;28;20500;-71
2022/01/10 06:54:15;;;;;;;27.80;14.20;;;1.30;99.90;;;;;;5056033;28;20032;-71
2022/01/10 06:56:41;;;;;;;23.48;13.95;;;1.30;99.90;;;;;;5058425;28;20055;-71
2022/01/10 06:59:07;;;;;;;23.63;13.63;;;1.20;99.90;;;;;;5057978;28;20040;-71
2022/01/10 07:01:33;;;;;;;26.35;13.95;;;1.20;99.90;;;;;;5058081;28;20037;-71
2022/01/10 07:03:59;;;;;;;25.45;13.15;;;1.20;99.90;;;;;;5058031;28;20041;-71
2022/01/10 07:06:25;;;;;;;27.55;14.15;;;1.20;99.90;;;;;;5058002;28;20120;-71
2022/01/10 07:08:51;;;;;;;30.73;14.38;;;1.20;99.90;;;;;;5057857;28;20044;-71
2022/01/10 07:11:16;;;;;;;29.27;14.45;;;1.10;99.90;;;;;;5058191;28;20045;-71
2022/01/10 07:13:42;;;;;;;26.90;14.18;;;1.10;99.90;;;;;;5057833;28;20549;-71
2022/01/10 07:16:08;;;;;;;27.02;14.02;;;1.10;99.90;;;;;;5058095;28;20086;-71
2022/01/10 07:18:33;;;;;;;30.83;14.18;;;1.10;99.90;;;;;;5057702;28;20389;-71
2022/01/10 07:20:59;;;;;;;27.13;14.73;;;1.10;99.90;;;;;;5057788;28;20488;-71
2022/01/10 07:23:25;;;;;;;27.83;15.80;;;1.10;99.90;;;;;;5057691;28;20055;-72
2022/01/10 07:25:50;;;;;;;29.27;15.05;;;1.10;99.90;;;;;;5057646;28;20047;-72
2022/01/10 07:28:16;;;;;;;30.27;16.50;;;1.10;99.90;;;;;;5057720;28;20165;-71
2022/01/10 07:30:42;;;;;;;27.52;16.27;;;1.00;99.90;;;;;;5057784;28;20083;-72
2022/01/10 07:33:07;;;;;;;34.50;19.00;;;1.00;99.90;;;;;;5057602;28;20045;-71
2022/01/10 07:35:33;;;;;;;32.97;16.35;;;1.00;99.90;;;;;;5057504;28;20047;-71
2022/01/10 07:37:59;;;;;;;31.25;15.70;;;1.00;99.90;;;;;;5057305;28;20044;-71
2022/01/10 07:40:25;;;;;;;27.25;14.77;;;0.90;99.90;;;;;;5057586;28;20048;-70
2022/01/10 07:42:51;;;;;;;33.40;14.98;;;1.00;99.90;;;;;;5057596;28;20411;-70
2022/01/10 07:45:17;;;;;;;26.45;14.18;;;0.90;99.90;;;;;;5040573;28;20127;-71
2022/01/10 07:47:43;;;;;;;32.13;15.40;;;1.00;99.90;;;;;;5057372;28;20036;-71
2022/01/10 07:50:09;;;;;;;26.48;14.50;;;0.90;99.90;;;;;;5057450;28;20041;-71
2022/01/10 07:52:35;;;;;;;24.17;14.23;;;1.00;99.90;;;;;;5057427;28;20036;-71
2022/01/10 07:55:00;;;;;;;27.92;14.65;;;1.00;99.90;;;;;;5057097;28;20123;-71
2022/01/10 07:57:26;;;;;;;24.40;14.07;;;0.90;99.90;;;;;;5040237;28;20062;-71
2022/01/10 07:59:52;;;;;;;26.58;13.90;;;0.90;99.90;;;;;;5057258;28;20037;-71
2022/01/10 08:02:20;;;;;;;25.50;14.13;;;0.90;99.90;;;;;;5057015;28;20480;-71
2022/01/10 08:04:46;;;;;;;25.90;13.63;;;0.90;99.90;;;;;;5056234;28;20044;-71
2022/01/10 08:07:12;;;;;;;26.38;14.10;;;0.90;99.90;;;;;;5056359;28;20044;-71
2022/01/10 08:09:37;;;;;;;25.35;15.20;;;0.80;99.90;;;;;;5056764;28;20040;-71
2022/01/10 08:12:03;;;;;;;29.00;14.63;;;0.80;99.90;;;;;;5056738;28;20032;-71
2022/01/10 08:14:30;;;;;;;24.20;14.00;;;0.90;99.90;;;;;;5056764;28;20029;-71
2022/01/10 08:16:57;;;;;;;25.08;13.70;;;0.90;99.90;;;;;;5056850;28;20040;-71
2022/01/10 08:19:23;;;;;;;29.77;14.45;;;0.90;99.90;;;;;;5056486;28;20416;-71
2022/01/10 08:21:49;;;;;;;27.90;15.13;;;0.90;99.90;;;;;;5056590;28;20037;-71
2022/01/10 08:24:15;;;;;;;27.73;14.82;;;0.90;99.90;;;;;;5039907;28;20435;-70
2022/01/10 08:26:41;;;;;;;20.90;14.73;;;0.90;99.90;;;;;;5040244;28;20082;-71
2022/01/10 08:29:07;;;;;;;28.23;16.20;;;0.90;99.90;;;;;;5039799;28;20454;-71
2022/01/10 08:31:33;;;;;;;23.60;14.35;;;0.90;99.90;;;;;;5056925;28;20054;-71
2022/01/10 08:34:01;;;;;;;33.25;16.73;;;0.90;99.90;;;;;;5056821;28;20095;-71
2022/01/10 08:36:28;;;;;;;27.52;16.88;;;0.90;99.90;;;;;;5056412;28;20439;-71
2022/01/10 08:38:54;;;;;;;30.25;18.25;;;1.00;99.90;;;;;;5056294;28;20036;-71
2022/01/10 08:41:20;;;;;;;28.45;16.67;;;1.00;99.90;;;;;;5056373;28;20485;-71
2022/01/10 08:43:46;;;;;;;26.70;16.63;;;1.00;99.90;;;;;;5056405;28;20048;-71
2022/01/10 08:46:11;;;;;;;25.17;16.27;;;1.00;99.90;;;;;;5056012;28;20457;-71
2022/01/10 08:48:37;;;;;;;25.80;15.32;;;1.00;99.90;;;;;;5039425;28;20066;-71
2022/01/10 08:51:02;;;;;;;23.50;15.90;;;1.00;99.90;;;;;;5056330;28;20404;-71
2022/01/10 08:53:28;;;;;;;26.98;14.20;;;1.10;99.90;;;;;;5055996;28;20037;-71
2022/01/10 08:55:53;;;;;;;29.13;14.65;;;1.10;99.90;;;;;;5055942;28;20043;-71
2022/01/10 08:58:19;;;;;;;19.52;13.02;;;1.10;99.90;;;;;;5055784;28;20082;-71
2022/01/10 09:00:45;;;;;;;25.88;13.35;;;1.20;99.90;;;;;;5055812;28;20048;-71
2022/01/10 09:03:10;;;;;;;28.27;14.60;;;1.30;99.90;;;;;;5055792;28;20076;-71
2022/01/10 09:05:37;;;;;;;26.45;15.73;;;1.30;99.90;;;;;;5055676;28;20037;-71
2022/01/10 09:08:04;;;;;;;23.67;15.00;;;1.30;99.90;;;;;;5055607;28;20495;-71
2022/01/10 09:10:30;;;;;;;28.10;15.20;;;1.40;99.90;;;;;;5055900;28;20055;-71
2022/01/10 09:12:55;;;;;;;28.23;14.68;;;1.50;99.90;;;;;;5039128;28;20496;-71
2022/01/10 09:15:21;;;;;;;32.13;15.57;;;1.50;99.90;;;;;;5055828;28;20040;-71
2022/01/10 09:17:47;;;;;;;25.70;15.00;;;1.50;99.90;;;;;;5055141;28;20056;-71
2022/01/10 09:20:13;;;;;;;23.33;14.85;;;1.60;99.90;;;;;;5055796;28;20119;-71
2022/01/10 09:22:39;;;;;;;30.88;17.55;;;1.60;99.90;;;;;;5038842;28;20483;-71
2022/01/10 09:25:05;;;;;;;28.58;16.38;;;1.60;99.90;;;;;;5055432;28;20036;-71
2022/01/10 09:27:31;;;;;;;31.50;17.08;;;1.80;99.90;;;;;;5056321;28;20094;-72
2022/01/10 09:29:57;;;;;;;21.90;15.30;;;1.80;99.90;;;;;;5055895;28;20060;-71
2022/01/10 09:32:23;;;;;;;23.85;13.98;;;1.90;99.90;;;;;;5055369;28;20492;-71
2022/01/10 09:34:49;;;;;;;24.23;15.95;;;2.00;99.90;;;;;;5055257;28;20037;-71
2022/01/10 09:37:14;;;;;;;27.70;15.60;;;2.10;99.90;;;;;;5055133;28;20047;-71
2022/01/10 09:39:40;;;;;;;30.75;16.90;;;2.10;99.90;;;;;;5055474;28;20068;-71
2022/01/10 09:42:06;;;;;;;26.13;15.63;;;2.10;99.90;;;;;;5038714;28;20377;-71
2022/01/10 09:44:34;;;;;;;27.80;15.95;;;2.20;99.90;;;;;;5055143;28;20044;-71
2022/01/10 09:47:00;;;;;;;32.05;18.08;;;2.30;99.90;;;;;;5055113;28;20426;-71
2022/01/10 09:49:26;;;;;;;29.50;16.70;;;2.30;99.90;;;;;;5055406;28;20037;-72
2022/01/10 09:51:51;;;;;;;24.85;15.88;;;2.40;99.90;;;;;;5055427;28;20151;-71
2022/01/10 09:54:17;;;;;;;26.80;16.23;;;2.40;99.90;;;;;;5055300;28;20497;-71
2022/01/10 09:56:47;;;;;;;28.15;16.75;;;2.50;99.90;;;;;;5055134;28;20047;-72
2022/01/10 09:59:13;;;;;;;25.63;14.50;;;2.60;99.90;;;;;;5054903;28;20563;-71
2022/01/10 10:01:39;;;;;;;27.60;15.52;;;2.60;99.90;;;;;;5055242;28;20060;-71
2022/01/10 10:04:05;;;;;;;26.75;17.48;;;2.70;99.90;;;;;;5038390;28;20070;-71
2022/01/10 10:06:32;;;;;;;24.33;15.73;;;2.80;99.90;;;;;;5055001;28;20040;-72
2022/01/10 10:09:05;;;;;;;24.17;16.73;;;2.80;99.90;;;;;;5055129;28;20392;-71
2022/01/10 10:11:49;;;;;;;22.02;15.75;;;2.90;99.90;;;;;;5054904;28;20049;-72
2022/01/10 10:14:18;;;;;;;25.35;15.55;;;3.00;99.90;;;;;;5054927;28;20037;-72
2022/01/10 10:16:51;;;;;;;28.98;18.08;;;3.10;99.90;;;;;;5054839;28;20181;-71
2022/01/10 10:19:22;;;;;;;26.83;17.58;;;3.10;99.90;;;;;;5054695;28;20045;-71
2022/01/10 10:21:49;;;;;;;28.95;17.23;;;3.10;99.90;;;;;;5054884;28;20032;-71
2022/01/10 10:24:15;;;;;;;34.20;18.42;;;3.10;99.90;;;;;;5055038;28;20044;-71
2022/01/10 10:26:40;;;;;;;29.85;17.83;;;3.10;99.90;;;;;;5054738;28;20043;-71
2022/01/10 10:29:06;;;;;;;26.88;16.92;;;3.00;99.90;;;;;;5056096;28;20044;-71
2022/01/10 10:31:41;;;;;;;24.55;17.05;;;3.00;99.90;;;;;;5041974;28;20036;-71
2022/01/10 10:34:06;;;;;;;25.50;17.02;;;3.10;99.90;;;;;;5058708;28;20583;-71
2022/01/10 10:36:35;;;;;;;24.38;16.63;;;3.10;99.90;;;;;;5058829;28;20142;-72
2022/01/10 10:39:03;;;;;;;28.42;17.42;;;3.10;99.90;;;;;;5058420;28;20394;-71
2022/01/10 10:41:29;;;;;;;30.13;17.75;;;3.30;99.90;;;;;;5058537;28;20553;-71
2022/01/10 10:43:55;;;;;;;26.80;17.15;;;3.30;99.90;;;;;;5058615;28;20041;-72
2022/01/10 10:46:26;;;;;;;26.15;18.17;;;3.30;99.90;;;;;;5058372;28;20062;-71
2022/01/10 10:48:56;;;;;;;28.83;18.48;;;3.40;99.90;;;;;;5058287;28;20044;-71
2022/01/10 10:51:25;;;;;;;27.23;17.17;;;3.50;99.90;;;;;;5042024;28;20036;-72
2022/01/10 10:53:51;;;;;;;30.13;18.10;;;3.60;99.90;;;;;;5058441;28;20044;-72
2022/01/10 10:56:17;;;;;;;29.75;17.00;;;3.60;99.90;;;;;;5058247;28;20041;-72
2022/01/10 10:58:43;;;;;;;30.33;19.92;;;3.70;99.90;;;;;;5058608;28;20047;-72
2022/01/10 11:01:09;;;;;;;26.35;17.77;;;3.80;99.90;;;;;;5058376;28;20038;-71
2022/01/10 11:03:34;;;;;;;27.60;16.38;;;3.90;99.90;;;;;;5058281;28;20170;-71
2022/01/10 11:06:03;;;;;;;28.50;17.65;;;4.00;99.90;;;;;;5058103;28;20384;-71
2022/01/10 11:08:31;;;;;;;27.77;18.20;;;4.10;99.90;;;;;;5058193;28;20040;-71
2022/01/10 11:10:59;;;;;;;30.00;17.75;;;4.10;99.90;;;;;;5057926;28;20123;-71
2022/01/10 11:13:25;;;;;;;25.13;17.13;;;4.20;99.90;;;;;;5057946;28;20044;-72
2022/01/10 11:15:52;;;;;;;29.17;18.67;;;4.30;99.90;;;;;;5057929;28;20048;-72
2022/01/10 11:18:20;;;;;;;26.38;17.33;;;4.40;99.90;;;;;;5057695;28;20032;-72
2022/01/10 11:20:48;;;;;;;28.38;17.13;;;4.60;99.90;;;;;;5057991;28;20037;-72
2022/01/10 11:23:14;;;;;;;25.60;16.30;;;4.70;99.90;;;;;;5057743;28;20028;-72
2022/01/10 11:25:42;;;;;;;25.42;17.00;;;4.90;99.90;;;;;;5057704;28;20028;-72
2022/01/10 11:28:17;;;;;;;32.53;16.98;;;5.10;99.90;;;;;;5073695;22;20045;-71
2022/01/10 11:30:45;;;;;;;25.40;16.58;;;5.60;99.90;;;;;;5037724;28;20037;-71
2022/01/10 11:33:26;;;;;;;22.05;13.93;;;6.50;99.90;;;;;;5037578;28;20480;-72
2022/01/10 11:36:01;;;;;;;23.98;13.93;;;7.40;99.90;;;;;;5037841;28;20036;-72
2022/01/10 11:38:41;;;;;;;25.33;14.10;;;7.90;99.90;;;;;;5020905;28;20091;-71
2022/01/10 11:41:10;;;;;;;22.55;14.32;;;8.20;99.90;;;;;;5037149;28;20033;-72
2022/01/10 11:43:55;;;;;;;22.95;13.02;;;8.60;99.90;;;;;;5037370;28;20095;-72
2022/01/10 11:46:35;;;;;;;25.08;14.57;;;9.10;99.00;;;;;;5037328;28;20106;-71
2022/01/10 11:49:08;;;;;;;21.50;13.30;;;9.50;98.60;;;;;;5037473;28;20068;-71
2022/01/10 11:51:50;;;;;;;22.80;13.05;;;9.50;97.20;;;;;;5020799;28;20094;-71
2022/01/10 11:54:26;;;;;;;19.20;13.05;;;9.80;97.00;;;;;;5037492;28;20049;-72
2022/01/10 11:56:56;;;;;;;20.95;13.65;;;10.00;96.30;;;;;;5037508;28;20036;-72
2022/01/10 11:59:42;;;;;;;23.58;14.05;;;10.20;96.10;;;;;;5037115;28;20497;-72
2022/01/10 12:02:14;;;;;;;20.85;13.02;;;10.70;94.60;;;;;;5037092;28;20552;-72
2022/01/10 12:04:45;;;;;;;23.98;13.80;;;10.90;94.00;;;;;;5020806;28;20049;-72
2022/01/10 12:07:13;;;;;;;19.73;13.07;;;10.90;92.80;;;;;;5036894;28;20505;-72
2022/01/10 12:09:40;;;;;;;18.60;13.23;;;10.50;93.10;;;;;;5036902;28;20496;-72
2022/01/10 12:12:12;;;;;;;23.17;14.77;;;10.40;93.40;;;;;;5037090;28;20036;-72
2022/01/10 12:14:37;;;;;;;26.15;15.40;;;10.30;92.60;;;;;;5036883;28;20044;-72
2022/01/10 12:17:04;;;;;;;23.38;14.85;;;10.30;93.50;;;;;;5037013;28;20040;-72
2022/01/10 12:19:29;;;;;;;20.50;15.18;;;10.40;93.60;;;;;;5036595;28;20045;-72
2022/01/10 12:21:55;;;;;;;22.50;14.20;;;10.60;92.80;;;;;;5036725;28;20118;-72
2022/01/10 12:24:22;;;;;;;22.13;13.82;;;11.20;92.20;;;;;;5036882;28;20035;-72
2022/01/10 12:26:48;;;;;;;23.83;13.57;;;11.60;90.40;;;;;;5036600;28;20087;-72
2022/01/10 12:29:15;;;;;;;21.85;12.80;;;11.90;88.50;;;;;;5036469;28;20040;-72
2022/01/10 12:31:43;;;;;;;22.60;12.18;;;12.20;86.40;;;;;;5036491;28;20124;-72
2022/01/10 12:34:13;;;;;;;22.33;12.75;;;12.70;84.40;;;;;;5036409;28;20048;-72
2022/01/10 12:36:40;;;;;;;19.63;11.48;;;13.40;81.70;;;;;;5036421;28;20041;-72
2022/01/10 12:39:18;;;;;;;20.88;12.05;;;14.10;78.40;;;;;;5019714;28;20068;-72
2022/01/10 12:41:44;;;;;;;19.48;11.07;;;14.90;75.30;;;;;;5036543;28;20120;-72
2022/01/10 12:44:09;;;;;;;23.27;12.63;;;15.50;73.00;;;;;;5020079;28;20466;-72
2022/01/10 12:46:36;;;;;;;16.38;12.13;;;15.90;71.00;;;;;;5019783;28;20531;-72
2022/01/10 12:49:07;;;;;;;17.77;11.68;;;16.30;69.20;;;;;;5036055;28;20519;-72